createdAt,value
2023-01-04T00:00:51.400Z,2.05
2023-01-04T00:03:18.767Z,2.40
2023-01-04T00:05:45.555Z,1.98
2023-01-04T00:08:12.485Z,1.88
2023-01-04T00:10:39.080Z,1.80
2023-01-04T00:13:06.372Z,2.13
2023-01-04T00:15:33.075Z,1.80
2023-01-04T00:18:00.326Z,1.70
2023-01-04T00:20:26.970Z,1.80
2023-01-04T00:22:54.248Z,2.00
2023-01-04T00:25:20.893Z,1.95
2023-01-04T00:27:47.850Z,2.40
2023-01-04T00:30:14.495Z,2.17
2023-01-04T00:32:41.862Z,1.92
2023-01-04T00:35:08.991Z,2.63
2023-01-04T00:37:36.269Z,2.08
2023-01-04T00:40:03.617Z,2.03
2023-01-04T00:42:30.564Z,1.88
2023-01-04T00:44:57.163Z,2.47
2023-01-04T00:47:24.415Z,2.22
2023-01-04T00:49:51.019Z,2.17
2023-01-04T00:52:18.406Z,1.90
2023-01-04T00:54:45.045Z,2.78
2023-01-04T00:57:12.348Z,1.88
2023-01-04T00:59:38.966Z,1.88
2023-01-04T01:02:06.448Z,2.40
2023-01-04T01:04:33.267Z,2.55
2023-01-04T01:07:00.552Z,2.55
2023-01-04T01:09:27.300Z,2.00
2023-01-04T01:11:54.783Z,2.47
2023-01-04T01:14:24.659Z,2.88
2023-01-04T01:16:56.027Z,2.20
2023-01-04T01:19:25.932Z,1.98
2023-01-04T01:21:53.223Z,2.35
2023-01-04T01:24:20.516Z,2.15
2023-01-04T01:26:47.975Z,2.22
2023-01-04T01:29:14.632Z,2.30
2023-01-04T01:31:42.497Z,2.05
2023-01-04T01:34:09.709Z,2.58
2023-01-04T01:36:37.207Z,1.80
2023-01-04T01:39:06.146Z,3.03
2023-01-04T01:41:35.719Z,2.17
2023-01-04T01:44:41.488Z,2.45
2023-01-04T01:47:23.577Z,2.25
2023-01-04T01:49:53.240Z,2.45
2023-01-04T01:52:32.655Z,2.83
2023-01-04T01:55:02.653Z,1.98
2023-01-04T01:57:34.474Z,2.42
2023-01-04T02:00:05.649Z,2.40
2023-01-04T02:02:52.199Z,2.55
2023-01-04T02:05:21.321Z,2.50
2023-01-04T02:07:50.884Z,2.40
2023-01-04T02:10:17.711Z,2.30
2023-01-04T02:12:46.241Z,2.42
2023-01-04T02:15:13.339Z,2.78
2023-01-04T02:18:03.967Z,2.05
2023-01-04T02:20:38.923Z,2.28
2023-01-04T02:23:15.021Z,2.00
2023-01-04T02:26:09.768Z,2.72
2023-01-04T02:28:56.244Z,1.98
2023-01-04T02:31:38.865Z,1.73
2023-01-04T02:34:18.681Z,1.83
2023-01-04T02:36:59.177Z,1.55
2023-01-04T02:39:46.515Z,1.65
2023-01-04T02:43:15.667Z,1.90
2023-01-04T02:45:56.654Z,1.52
2023-01-04T02:48:41.875Z,1.90
2023-01-04T02:51:35.965Z,1.40
2023-01-04T02:54:21.827Z,1.20
2023-01-04T02:57:10.767Z,1.42
2023-01-04T03:00:02.310Z,1.20
2023-01-04T03:03:00.535Z,1.35
2023-01-04T03:06:09.016Z,1.27
2023-01-04T03:08:41.165Z,1.20
2023-01-04T03:11:35.182Z,1.08
2023-01-04T03:14:32.573Z,0.77
2023-01-04T03:16:59.931Z,1.10
2023-01-04T03:19:47.736Z,0.85
2023-01-04T03:22:38.689Z,0.82
2023-01-04T03:25:27.472Z,0.88
2023-01-04T03:28:15.818Z,0.80
2023-01-04T03:31:11.080Z,0.98
2023-01-04T03:33:56.372Z,1.13
2023-01-04T03:36:37.574Z,0.82
2023-01-04T03:39:47.423Z,0.88
2023-01-04T03:42:37.285Z,1.00
2023-01-04T03:45:55.797Z,0.75
2023-01-04T03:48:31.781Z,0.73
2023-01-04T03:51:18.426Z,0.80
2023-01-04T03:53:51.357Z,0.65
2023-01-04T03:56:22.730Z,0.70
2023-01-04T03:58:51.213Z,0.75
2023-01-04T04:01:21.148Z,0.80
2023-01-04T04:04:06.282Z,0.95
2023-01-04T04:06:52.197Z,0.65
2023-01-04T04:09:18.851Z,0.90
2023-01-04T04:40:14.467Z,0.70
2023-01-04T06:10:30.367Z,0.80
2023-01-04T06:12:57.694Z,0.85
2023-01-04T06:15:24.416Z,0.73
2023-01-04T06:17:51.849Z,0.90
2023-01-04T06:20:18.634Z,0.73
2023-01-04T06:22:46.255Z,0.80
2023-01-04T06:25:12.916Z,0.98
2023-01-04T06:27:40.411Z,0.63
2023-01-04T06:30:07.764Z,0.50
2023-01-04T06:32:35.220Z,1.10
2023-01-04T06:35:01.993Z,0.80
2023-01-04T06:37:29.395Z,0.98
2023-01-04T06:39:56.036Z,0.75
2023-01-04T06:42:41.875Z,0.80
2023-01-04T06:45:08.822Z,0.70
2023-01-04T06:47:36.658Z,0.90
2023-01-04T06:50:04.895Z,0.90
2023-01-04T06:52:32.195Z,0.90
2023-01-04T06:54:58.820Z,0.70
2023-01-04T06:57:26.183Z,0.68
2023-01-04T06:59:52.913Z,0.90
2023-01-04T07:02:20.447Z,0.80
2023-01-04T07:04:47.306Z,0.93
2023-01-04T07:07:14.964Z,0.80
2023-01-04T07:09:41.684Z,1.08
2023-01-04T07:12:09.075Z,0.75
2023-01-04T07:14:35.756Z,0.90
2023-01-04T07:17:03.153Z,0.98
2023-01-04T07:19:29.830Z,0.85
2023-01-04T07:21:59.018Z,0.90
2023-01-04T07:24:29.988Z,0.70
2023-01-04T07:27:02.474Z,0.80
2023-01-04T07:29:29.416Z,0.95
2023-01-04T07:31:57.848Z,0.93
2023-01-04T07:34:25.713Z,0.85
2023-01-04T07:36:53.353Z,0.80
2023-01-04T07:39:20.546Z,0.88
2023-01-04T07:41:49.133Z,0.70
2023-01-04T07:44:19.231Z,0.73
2023-01-04T07:46:46.667Z,0.73
2023-01-04T07:49:17.948Z,0.90
2023-01-04T07:51:47.829Z,0.80
2023-01-04T07:54:18.322Z,0.80
2023-01-04T07:56:47.333Z,0.82
2023-01-04T07:59:15.185Z,0.73
2023-01-04T08:01:43.133Z,0.73
2023-01-04T08:04:11.870Z,0.70
2023-01-04T08:06:40.327Z,1.08
2023-01-04T08:09:07.323Z,0.90
2023-01-04T08:11:34.901Z,0.77
2023-01-04T08:14:01.954Z,0.80
2023-01-04T08:16:38.679Z,1.00
2023-01-04T08:19:08.365Z,0.90
2023-01-04T08:21:36.850Z,1.00
2023-01-04T08:24:04.867Z,0.90
2023-01-04T08:26:32.817Z,0.88
2023-01-04T08:29:00.303Z,1.02
2023-01-04T08:31:30.664Z,1.00
2023-01-04T08:33:58.647Z,0.90
2023-01-04T08:36:36.616Z,1.00
2023-01-04T08:39:06.500Z,1.15
2023-01-04T08:42:02.899Z,0.90
2023-01-04T08:44:35.719Z,1.00
2023-01-04T08:47:02.585Z,0.77
2023-01-04T08:49:30.087Z,1.20
2023-01-04T08:51:56.932Z,0.75
2023-01-04T08:54:24.163Z,0.90
2023-01-04T08:56:51.763Z,1.00
2023-01-04T08:59:18.499Z,0.90
2023-01-04T09:01:46.350Z,0.93
2023-01-04T09:04:13.257Z,1.35
2023-01-04T09:06:40.903Z,1.27
2023-01-04T09:09:07.652Z,1.00
2023-01-04T09:11:35.624Z,0.82
2023-01-04T09:14:07.906Z,0.90
2023-01-04T09:16:37.063Z,1.10
2023-01-04T09:19:04.844Z,1.20
2023-01-04T09:21:31.922Z,1.20
2023-01-04T09:23:59.550Z,1.13
2023-01-04T09:26:26.818Z,0.93
2023-01-04T09:28:55.798Z,1.00
2023-01-04T09:31:25.817Z,1.20
2023-01-04T09:36:41.352Z,0.90
2023-01-04T09:39:13.304Z,1.05
2023-01-04T09:42:01.295Z,0.90
2023-01-04T09:47:51.577Z,1.10
2023-01-04T09:50:24.418Z,0.57
2023-01-04T09:53:03.957Z,1.10
2023-01-04T09:55:41.286Z,0.77
2023-01-04T09:58:30.000Z,0.70
2023-01-04T10:01:05.542Z,1.00
2023-01-04T10:03:35.705Z,0.80
2023-01-04T10:06:04.141Z,0.80
2023-01-04T10:08:33.974Z,1.15
2023-01-04T10:11:45.920Z,1.08
2023-01-04T10:14:37.435Z,0.90
2023-01-04T10:17:23.857Z,0.82
2023-01-04T10:23:54.522Z,1.23
2023-01-04T10:26:34.599Z,1.48
2023-01-04T10:29:25.103Z,0.82
2023-01-04T10:32:20.844Z,1.30
2023-01-04T10:34:48.794Z,1.10
2023-01-04T10:37:31.994Z,0.90
2023-01-04T10:39:59.583Z,1.33
2023-01-04T10:42:39.753Z,1.45
2023-01-04T10:45:33.635Z,1.48
2023-01-04T10:48:20.530Z,1.40
2023-01-04T10:51:07.108Z,1.50
2023-01-04T10:53:57.609Z,1.52
2023-01-04T10:56:56.485Z,1.35
2023-01-04T10:59:35.993Z,1.15
2023-01-04T11:02:42.051Z,1.67
2023-01-04T11:05:25.131Z,1.13
2023-01-04T11:07:57.435Z,1.42
2023-01-04T11:10:34.126Z,1.75
2023-01-04T11:13:01.491Z,2.55
2023-01-04T11:15:29.707Z,1.80
2023-01-04T11:17:58.335Z,1.95
2023-01-04T11:20:26.992Z,1.58
2023-01-04T11:23:14.819Z,1.67
2023-01-04T11:26:05.503Z,1.75
2023-01-04T11:28:49.689Z,1.38
2023-01-04T11:31:28.585Z,1.75
2023-01-04T11:34:00.840Z,1.60
2023-01-04T11:36:40.255Z,1.92
2023-01-04T11:39:26.467Z,2.00
2023-01-04T11:42:02.931Z,1.77
2023-01-04T11:44:34.649Z,1.50
2023-01-04T11:47:20.852Z,1.50
2023-01-04T11:49:48.234Z,1.27
2023-01-04T11:57:17.731Z,1.60
2023-01-04T11:59:44.395Z,1.10
2023-01-04T12:02:50.534Z,1.50
2023-01-04T12:05:28.098Z,1.17
2023-01-04T12:07:56.778Z,1.33
2023-01-04T12:10:27.131Z,1.40
2023-01-04T12:12:56.664Z,1.00
2023-01-04T12:15:44.117Z,0.93
2023-01-04T12:18:17.904Z,1.23
2023-01-04T12:20:45.432Z,1.05
2023-01-04T12:23:14.030Z,1.08
2023-01-04T12:25:45.675Z,0.95
2023-01-04T12:28:32.237Z,1.10
2023-01-04T12:31:19.593Z,1.00
2023-01-04T12:33:50.157Z,1.23
2023-01-04T12:36:19.325Z,1.02
2023-01-04T12:38:52.633Z,0.95
2023-01-04T12:43:50.028Z,0.95
2023-01-04T12:46:50.479Z,0.90
2023-01-04T12:49:26.885Z,0.80
2023-01-04T12:52:34.441Z,1.40
2023-01-04T12:55:27.702Z,0.82
2023-01-04T12:57:54.870Z,0.75
2023-01-04T13:00:21.629Z,0.88
2023-01-04T13:03:11.753Z,0.77
2023-01-04T13:05:57.247Z,0.90
2023-01-04T13:08:25.509Z,0.98
2023-01-04T13:10:55.288Z,1.08
2023-01-04T13:13:52.846Z,0.80
2023-01-04T13:16:39.649Z,5.03
2023-01-04T13:19:25.484Z,2.22
2023-01-04T13:21:53.531Z,1.90
2023-01-04T13:24:32.202Z,1.00
2023-01-04T13:27:13.832Z,0.85
2023-01-04T13:29:42.640Z,1.10
2023-01-04T13:35:15.344Z,0.80
2023-01-04T13:37:51.064Z,0.60
2023-01-04T13:40:25.697Z,0.93
2023-01-04T13:43:09.513Z,0.93
2023-01-04T13:46:05.550Z,1.00
2023-01-04T13:48:37.948Z,0.80
2023-01-04T13:51:32.072Z,0.80
2023-01-04T13:54:17.170Z,1.23
2023-01-04T13:56:46.106Z,0.80
2023-01-04T13:59:15.880Z,1.00
2023-01-04T14:01:50.457Z,0.82
2023-01-04T14:04:33.932Z,1.38
2023-01-04T14:07:01.527Z,1.10
2023-01-04T14:09:32.929Z,0.80
2023-01-04T14:12:08.711Z,0.85
2023-01-04T14:14:45.293Z,1.00
2023-01-04T14:17:16.799Z,1.00
2023-01-04T14:20:06.286Z,0.77
2023-01-04T14:22:32.866Z,0.90
2023-01-04T14:25:20.879Z,0.80
2023-01-04T14:27:47.727Z,1.02
2023-01-04T14:30:20.817Z,1.05
2023-01-04T14:33:13.051Z,3.00
2023-01-04T14:35:46.439Z,2.10
2023-01-04T14:38:19.219Z,1.70
2023-01-04T14:40:48.631Z,1.67
2023-01-04T14:43:45.715Z,1.95
2023-01-04T14:46:12.763Z,1.27
2023-01-04T14:48:39.520Z,2.28
2023-01-04T14:51:07.754Z,2.50
2023-01-04T14:53:34.374Z,1.33
2023-01-04T14:56:01.526Z,1.45
2023-01-04T14:58:28.286Z,1.30
2023-01-04T15:00:55.583Z,1.48
2023-01-04T15:03:22.332Z,1.58
2023-01-04T15:05:49.912Z,1.50
2023-01-04T15:08:16.582Z,1.55
2023-01-04T15:10:43.937Z,1.30
2023-01-04T15:13:10.562Z,1.83
2023-01-04T15:15:38.040Z,1.48
2023-01-04T15:18:04.854Z,1.65
2023-01-04T15:20:32.415Z,2.00
2023-01-04T15:22:59.219Z,3.30
2023-01-04T15:25:29.690Z,2.30
2023-01-04T15:27:56.402Z,5.00
2023-01-04T15:30:23.941Z,2.13
2023-01-04T15:32:50.833Z,2.35
2023-01-04T15:35:17.917Z,1.92
2023-01-04T15:37:45.247Z,1.20
2023-01-04T15:40:17.721Z,1.55
2023-01-04T15:43:00.152Z,2.38
2023-01-04T15:45:30.805Z,3.30
2023-01-04T15:48:02.869Z,1.50
2023-01-04T15:50:35.902Z,1.35
2023-01-04T15:53:04.578Z,1.77
2023-01-04T15:55:36.258Z,2.88
2023-01-04T15:58:04.294Z,1.75
2023-01-04T16:00:33.015Z,2.00
2023-01-04T16:02:59.940Z,2.35
2023-01-04T16:05:27.328Z,1.98
2023-01-04T16:07:53.962Z,2.55
2023-01-04T16:10:21.261Z,2.42
2023-01-04T16:12:54.709Z,2.35
2023-01-04T16:15:24.372Z,2.45
2023-01-04T16:17:51.183Z,2.03
2023-01-04T16:20:19.234Z,2.10
2023-01-04T16:22:45.963Z,2.30
2023-01-04T16:25:14.146Z,2.33
2023-01-04T16:27:41.580Z,2.40
2023-01-04T16:30:12.446Z,2.75
2023-01-04T16:32:43.712Z,3.28
2023-01-04T16:35:11.557Z,2.70
2023-01-04T16:37:38.723Z,2.88
2023-01-04T16:40:08.120Z,3.40
2023-01-04T16:45:24.689Z,4.18
2023-01-04T16:47:55.633Z,4.13
2023-01-04T16:50:23.329Z,4.05
2023-01-04T16:52:50.466Z,4.28
2023-01-04T16:55:23.633Z,4.30
2023-01-04T16:57:51.278Z,4.88
2023-01-04T17:00:19.357Z,3.13
2023-01-04T17:02:46.112Z,6.45
2023-01-04T17:05:13.693Z,4.00
2023-01-04T17:07:40.458Z,3.38
2023-01-04T17:10:08.444Z,3.83
2023-01-04T17:12:50.481Z,3.65
2023-01-04T17:18:06.105Z,3.80
2023-01-04T17:20:33.490Z,3.08
2023-01-04T17:23:00.112Z,3.50
2023-01-04T17:25:27.522Z,4.70
2023-01-04T17:27:54.153Z,3.65
2023-01-04T17:30:21.154Z,4.30
2023-01-04T17:32:47.775Z,4.28
2023-01-04T17:35:15.135Z,3.15
2023-01-04T17:37:41.742Z,4.07
2023-01-04T17:40:09.263Z,4.38
2023-01-04T17:42:35.902Z,3.92
2023-01-04T17:45:03.259Z,4.50
2023-01-04T17:47:29.918Z,4.65
2023-01-04T17:49:56.652Z,4.00
2023-01-04T17:52:30.651Z,5.15
2023-01-04T17:54:58.598Z,5.70
2023-01-04T17:57:25.279Z,5.03
2023-01-04T17:59:52.540Z,6.95
2023-01-04T18:02:35.092Z,7.15
2023-01-04T18:05:02.858Z,7.45
2023-01-04T18:07:29.505Z,7.50
2023-01-04T18:09:57.666Z,6.68
2023-01-04T18:12:24.333Z,6.85
2023-01-04T18:14:51.023Z,7.53
2023-01-04T18:17:18.535Z,10.65
2023-01-04T18:19:46.657Z,8.82
2023-01-04T18:22:14.195Z,8.55
2023-01-04T18:24:40.874Z,7.40
2023-01-04T18:27:26.487Z,11.90
2023-01-04T18:29:55.901Z,9.25
2023-01-04T18:32:24.500Z,8.93
2023-01-04T18:34:51.529Z,8.85
2023-01-04T18:37:18.965Z,9.73
2023-01-04T18:39:46.226Z,11.98
2023-01-04T18:42:13.293Z,8.43
2023-01-04T18:44:46.014Z,8.32
2023-01-04T18:47:16.649Z,8.57
2023-01-04T18:49:43.507Z,8.27
2023-01-04T18:52:10.917Z,7.85
2023-01-04T18:54:37.578Z,9.25
2023-01-04T18:57:05.491Z,8.02
2023-01-04T18:59:32.498Z,8.50
2023-01-04T19:02:03.427Z,6.40
2023-01-04T19:04:36.177Z,8.05
2023-01-04T19:07:03.496Z,9.48
2023-01-04T19:09:30.961Z,11.20
2023-01-04T19:11:58.063Z,11.80
2023-01-04T19:14:24.860Z,12.68
2023-01-04T19:16:53.537Z,11.02
2023-01-04T19:19:20.979Z,11.27
2023-01-04T19:21:48.556Z,9.27
2023-01-04T19:24:15.257Z,7.72
2023-01-04T19:26:48.895Z,7.53
2023-01-04T19:29:17.433Z,7.97
2023-01-04T19:31:45.112Z,7.75
2023-01-04T19:34:11.962Z,7.68
2023-01-04T19:36:39.347Z,7.25
2023-01-04T19:39:15.685Z,7.57
2023-01-04T19:41:43.590Z,7.85
2023-01-04T19:44:12.739Z,7.03
2023-01-04T19:46:39.969Z,7.43
2023-01-04T19:49:14.447Z,8.02
2023-01-04T19:51:44.276Z,7.40
2023-01-04T19:54:11.807Z,7.53
2023-01-04T19:56:38.472Z,8.60
2023-01-04T19:59:06.650Z,7.47
2023-01-04T20:01:34.164Z,8.15
2023-01-04T20:04:00.985Z,8.10
2023-01-04T20:06:28.311Z,8.38
2023-01-04T20:08:54.951Z,8.00
2023-01-04T20:11:21.979Z,9.40
2023-01-04T20:13:49.009Z,7.75
2023-01-04T20:16:15.694Z,7.57
2023-01-04T20:18:43.000Z,8.25
2023-01-04T20:21:12.482Z,8.35
2023-01-04T20:23:40.017Z,7.68
2023-01-04T20:26:12.910Z,7.63
2023-01-04T20:28:42.094Z,8.02
2023-01-04T20:31:10.889Z,7.65
2023-01-04T20:33:38.339Z,7.65
2023-01-04T20:36:07.534Z,8.85
2023-01-04T20:38:40.361Z,8.13
2023-01-04T20:41:10.033Z,7.45
2023-01-04T20:43:37.203Z,8.18
2023-01-04T20:46:12.511Z,8.05
2023-01-04T20:48:40.392Z,7.00
2023-01-04T20:51:14.208Z,7.38
2023-01-04T20:53:40.933Z,7.47
2023-01-04T20:56:13.674Z,7.10
2023-01-04T20:58:40.925Z,7.85
2023-01-04T21:01:08.935Z,8.05
2023-01-04T21:03:36.915Z,7.32
2023-01-04T21:06:10.403Z,6.47
2023-01-04T21:08:39.321Z,8.38
2023-01-04T21:11:07.018Z,7.43
2023-01-04T21:13:34.503Z,7.65
2023-01-04T21:16:02.400Z,7.32
2023-01-04T21:18:29.167Z,7.28
2023-01-04T21:20:56.631Z,8.07
2023-01-04T21:23:25.038Z,7.88
2023-01-04T21:25:52.698Z,8.00
2023-01-04T21:28:21.357Z,7.82
2023-01-04T21:30:49.613Z,7.95
2023-01-04T21:33:17.121Z,7.72
2023-01-04T21:35:44.644Z,7.38
2023-01-04T21:38:11.494Z,6.63
2023-01-04T21:40:41.130Z,7.72
2023-01-04T21:43:14.959Z,7.45
2023-01-04T21:45:42.297Z,8.27
2023-01-04T21:48:08.945Z,7.57
2023-01-04T21:50:37.782Z,7.55
2023-01-04T21:53:04.515Z,8.07
2023-01-04T21:55:34.782Z,8.15
2023-01-04T21:58:02.663Z,6.88
2023-01-04T22:00:29.370Z,8.15
2023-01-04T22:02:56.638Z,6.43
2023-01-04T22:05:24.039Z,8.20
2023-01-04T22:07:50.693Z,7.82
2023-01-04T22:10:18.002Z,7.45
2023-01-04T22:12:47.685Z,7.47
2023-01-04T22:15:15.192Z,7.93
2023-01-04T22:17:41.832Z,8.73
2023-01-04T22:20:09.952Z,9.90
2023-01-04T22:22:36.683Z,6.78
2023-01-04T22:25:04.337Z,9.13
2023-01-04T22:27:31.440Z,9.30
2023-01-04T22:29:58.109Z,8.10
2023-01-04T22:32:25.515Z,7.82
2023-01-04T22:34:52.844Z,7.65
2023-01-04T22:37:19.876Z,8.45
2023-01-04T22:39:46.567Z,7.93
2023-01-04T22:42:13.966Z,9.18
2023-01-04T22:44:41.333Z,8.10
2023-01-04T22:47:08.124Z,8.55
2023-01-04T22:49:35.501Z,7.07
2023-01-04T22:52:02.184Z,7.70
2023-01-04T22:54:32.018Z,6.82
2023-01-04T22:56:59.412Z,8.80
2023-01-04T22:59:27.293Z,7.18
2023-01-04T23:01:54.065Z,8.55
2023-01-04T23:04:21.434Z,7.05
2023-01-04T23:06:48.111Z,6.88
2023-01-04T23:09:17.970Z,6.60
2023-01-04T23:11:45.185Z,6.82
2023-01-04T23:14:15.116Z,7.03
2023-01-04T23:16:42.257Z,6.07
2023-01-04T23:19:13.060Z,6.78
2023-01-04T23:21:40.156Z,7.60
2023-01-04T23:24:08.347Z,7.22
2023-01-04T23:26:35.075Z,6.55
2023-01-04T23:29:03.183Z,6.75
2023-01-04T23:31:31.921Z,7.32
2023-01-04T23:34:02.592Z,7.05
2023-01-04T23:36:32.551Z,6.85
2023-01-04T23:39:02.055Z,7.57
2023-01-04T23:41:44.394Z,7.45
2023-01-04T23:46:59.814Z,6.60
2023-01-04T23:49:29.300Z,8.60
2023-01-04T23:51:56.869Z,7.97
2023-01-04T23:54:24.450Z,7.13
2023-01-04T23:56:52.405Z,7.18
2023-01-04T23:59:19.919Z,7.40
